Main page
METAR-TAF:

METAR-TAF

Airports :

Tunis–Carthage International Airport

Tunis, Tunisia

latitude: 36-50N, longitude: 010-14E, elevation: 3 m

Current weather observation

The report was made 31 minutes ago, at 20:00 UTC
Calm wind
Temperature 17°C
Humidity 88%
Pressure 1017 hPa
Visibility 10 km or more
Few clouds at a height of 2300 ft

METAR: DTTA 282000Z 00000KT 9999 FEW023 17/15 Q1017

Time: 21:31 (20:31 UTC)

Forecast

The report was made 3 hours and 31 minutes ago, at 17:00 UTC
Forecast valid from 28 at 18 UTC to 29 at 18 UTC
Wind 2 kt from variable directions
Scattered clouds at a height of 2000 ft
Temporary
from 29 at 02 UTC to 29 at 04 UTC
Visibility: 3000 m
mist
Probability 40% :
Temporary
from 29 at 04 UTC to 29 at 07 UTC
Visibility: 0600 m
Scattered clouds at a height of 1000 ft
fog
Becoming
from 29 at 10 UTC to 29 at 12 UTC
Wind 10 kt from the North/Northwest

TAF: DTTA 281700Z 2818/2918 VRB02KT SCT020 TEMPO 2902/2904 3000 BR PROB40 TEMPO 2904/2907 0600 FG SCT010 BECMG 2910/2912 33010KT

Weather observations and forecasts of more than 4000 airports (METAR and TAF reports).

The available stations are represented by yellow and red dots on the map.

Hover mouse over dot to see the name of the station.

Then click to see weather observations and forecasts.

To change the map : click on the green buttons with a black cross to zoom in, on the green button with a dash to zoom out, or on the green arrows for adjacent maps.


METAR-TAF: